Time;durP1;ratioP1;P1;durP2;ratioP2;P2;SDS_P1;SDS_P2;PMS_P1;PMS_P2;Temp;Humidity;BMP_temperature;BMP_pressure;BME280_temperature;BME280_humidity;BME280_pressure;Samples;Min_cycle;Max_cycle;Signal;HPM_P1;HPM_P2
2021/08/03 00:01:52;;;;;;;2.93;2.63;;;;;;;;;;5053276;28;20257;-76
2021/08/03 00:04:21;;;;;;;2.73;2.53;;;;;;;;;;5052342;28;20197;-77
2021/08/03 00:06:51;;;;;;;2.97;2.63;;;;;;;;;;5071256;28;20506;-77
2021/08/03 00:09:17;;;;;;;3.00;2.27;;;;;;;;;;5053243;28;20173;-76
2021/08/03 00:11:46;;;;;;;6.00;2.97;;;;;;;;;;5071521;28;20238;-76
2021/08/03 00:14:12;;;;;;;2.97;2.67;;;;;;;;;;5066995;28;20606;-76
2021/08/03 00:16:40;;;;;;;3.03;2.70;;;;;;;;;;5066270;28;20191;-76
2021/08/03 00:19:06;;;;;;;4.63;3.10;;;;;;;;;;5052456;28;20475;-77
2021/08/03 00:21:33;;;;;;;2.87;2.60;;;;;;;;;;5052515;28;20200;-76
2021/08/03 00:23:59;;;;;;;3.20;2.90;;;;;;;;;;5071317;28;20172;-77
2021/08/03 00:26:25;;;;;;;2.70;2.50;;;;;;;;;;5052579;28;20191;-76
2021/08/03 00:28:52;;;;;;;3.40;2.77;;;;;;;;;;5070253;28;20180;-76
2021/08/03 00:31:22;;;;;;;3.77;2.70;;;;;;;;;;5070599;28;20186;-76
2021/08/03 00:33:50;;;;;;;3.30;2.57;;;;;;;;;;5052993;28;20545;-76
2021/08/03 00:36:16;;;;;;;5.00;3.23;;;;;;;;;;5052128;28;20199;-76
2021/08/03 00:38:42;;;;;;;3.83;2.80;;;;;;;;;;5062477;28;20568;-77
2021/08/03 00:41:16;;;;;;;3.13;2.40;;;;;;;;;;5052400;28;20232;-76
2021/08/03 00:43:42;;;;;;;3.40;3.10;;;;;;;;;;5070667;28;20188;-77
2021/08/03 00:46:08;;;;;;;4.10;2.50;;;;;;;;;;5049402;28;20213;-76
2021/08/03 00:48:34;;;;;;;3.00;2.70;;;;;;;;;;5068082;28;20180;-76
2021/08/03 00:51:00;;;;;;;6.60;3.00;;;;;;;;;;5050796;28;20268;-77
2021/08/03 00:53:26;;;;;;;3.37;3.07;;;;;;;;;;5069998;28;20192;-76
2021/08/03 00:55:52;;;;;;;3.40;3.10;;;;;;;;;;5052226;28;20204;-76
2021/08/03 00:58:18;;;;;;;2.93;2.73;;;;;;;;;;5069787;28;20238;-76
2021/08/03 01:00:45;;;;;;;3.13;2.93;;;;;;;;;;5070040;28;20204;-76
2021/08/03 01:03:11;;;;;;;3.30;3.00;;;;;;;;;;5067030;28;20265;-76
2021/08/03 01:05:57;;;;;;;3.20;2.80;;;;;;;;;;5050820;28;20177;-76
2021/08/03 01:08:25;;;;;;;2.87;2.67;;;;;;;;;;5037847;28;20197;-76
2021/08/03 01:11:03;;;;;;;7.07;3.63;;;;;;;;;;5052282;28;20235;-76
2021/08/03 01:14:02;;;;;;;3.63;3.17;;;;;;;;;;5051848;28;20351;-76
2021/08/03 01:16:28;;;;;;;3.40;3.10;;;;;;;;;;5028022;28;20280;-77
2021/08/03 01:18:56;;;;;;;3.30;3.00;;;;;;;;;;5069110;28;20183;-75
2021/08/03 01:21:41;;;;;;;3.03;2.77;;;;;;;;;;5058702;28;20284;-77
2021/08/03 01:24:07;;;;;;;3.20;2.90;;;;;;;;;;5050951;28;20288;-76
2021/08/03 01:26:39;;;;;;;2.90;2.70;;;;;;;;;;5050783;28;20183;-76
2021/08/03 01:29:06;;;;;;;4.03;3.10;;;;;;;;;;5069744;28;20674;-76
2021/08/03 01:31:34;;;;;;;5.47;3.07;;;;;;;;;;5050740;28;20183;-76
2021/08/03 01:34:10;;;;;;;2.80;2.60;;;;;;;;;;5067710;28;20283;-76
2021/08/03 01:36:38;;;;;;;5.43;2.73;;;;;;;;;;5068558;28;20257;-76
2021/08/03 01:39:05;;;;;;;3.53;3.23;;;;;;;;;;5047792;28;20356;-76
2021/08/03 01:41:32;;;;;;;3.27;2.97;;;;;;;;;;5050933;28;20196;-76
2021/08/03 01:43:59;;;;;;;2.90;2.70;;;;;;;;;;5049827;28;20182;-76
2021/08/03 01:46:25;;;;;;;2.93;2.73;;;;;;;;;;5050093;28;20287;-76
2021/08/03 01:48:52;;;;;;;3.07;2.80;;;;;;;;;;5068905;28;20226;-76
2021/08/03 01:51:19;;;;;;;3.67;3.37;;;;;;;;;;5049741;28;20183;-76
2021/08/03 01:53:46;;;;;;;5.50;3.20;;;;;;;;;;5050772;28;20181;-76
2021/08/03 01:56:12;;;;;;;4.37;3.20;;;;;;;;;;5054784;28;20208;-76
2021/08/03 01:58:40;;;;;;;3.33;3.03;;;;;;;;;;5068022;28;20230;-76
2021/08/03 02:01:07;;;;;;;2.87;2.50;;;;;;;;;;5050369;28;20200;-76
2021/08/03 02:03:34;;;;;;;4.23;2.87;;;;;;;;;;5050093;28;20181;-76
2021/08/03 02:06:02;;;;;;;5.13;3.23;;;;;;;;;;5052919;28;20195;-76
2021/08/03 02:08:29;;;;;;;3.33;3.03;;;;;;;;;;5050845;28;20234;-76
2021/08/03 02:10:55;;;;;;;4.03;3.60;;;;;;;;;;5068723;28;20239;-76
2021/08/03 02:13:22;;;;;;;4.67;3.00;;;;;;;;;;5050495;28;20256;-77
2021/08/03 02:15:48;;;;;;;3.70;2.90;;;;;;;;;;5068971;28;20188;-76
2021/08/03 02:18:15;;;;;;;4.17;3.30;;;;;;;;;;5050548;28;20180;-76
2021/08/03 02:20:43;;;;;;;3.97;3.53;;;;;;;;;;5050551;28;20200;-76
2021/08/03 02:23:09;;;;;;;3.77;3.30;;;;;;;;;;5050096;28;20180;-76
2021/08/03 02:25:35;;;;;;;3.60;3.30;;;;;;;;;;5050542;28;20688;-76
2021/08/03 02:28:02;;;;;;;4.90;3.60;;;;;;;;;;5066328;28;20900;-77
2021/08/03 02:30:28;;;;;;;3.40;3.20;;;;;;;;;;5068024;28;20172;-76
2021/08/03 02:32:58;;;;;;;4.30;3.17;;;;;;;;;;5067250;28;20184;-76
2021/08/03 02:35:28;;;;;;;4.20;3.00;;;;;;;;;;5067036;28;20900;-76
2021/08/03 02:37:57;;;;;;;3.80;3.37;;;;;;;;;;5045697;28;20184;-77
2021/08/03 02:40:23;;;;;;;3.50;3.20;;;;;;;;;;5068498;28;20565;-77
2021/08/03 02:42:51;;;;;;;3.90;3.37;;;;;;;;;;5068243;28;20322;-76
2021/08/03 02:45:18;;;;;;;3.53;3.23;;;;;;;;;;5068287;28;20864;-76
2021/08/03 02:47:51;;;;;;;6.80;4.27;;;;;;;;;;5050320;28;20520;-76
2021/08/03 02:50:19;;;;;;;4.73;4.07;;;;;;;;;;5049778;28;20215;-77
2021/08/03 02:52:46;;;;;;;4.43;4.03;;;;;;;;;;5068551;28;20184;-76
2021/08/03 02:55:15;;;;;;;3.63;3.33;;;;;;;;;;5049802;28;20581;-76
2021/08/03 02:57:44;;;;;;;4.97;3.67;;;;;;;;;;5067919;28;20228;-76
2021/08/03 03:00:13;;;;;;;4.97;3.67;;;;;;;;;;5049497;28;20200;-77
2021/08/03 03:02:41;;;;;;;4.50;3.40;;;;;;;;;;5068706;28;20711;-76
2021/08/03 03:05:13;;;;;;;4.03;3.70;;;;;;;;;;5068109;28;20215;-77
2021/08/03 03:07:44;;;;;;;5.87;4.17;;;;;;;;;;5066547;28;20196;-76
2021/08/03 03:10:13;;;;;;;4.87;3.50;;;;;;;;;;5049462;28;20268;-76
2021/08/03 03:12:41;;;;;;;4.13;3.73;;;;;;;;;;5049531;28;20196;-76
2021/08/03 03:15:08;;;;;;;5.17;3.90;;;;;;;;;;5049784;28;20180;-76
2021/08/03 03:17:35;;;;;;;4.07;3.77;;;;;;;;;;5054145;28;20208;-76
2021/08/03 03:20:03;;;;;;;4.73;3.90;;;;;;;;;;5071144;28;20204;-76
2021/08/03 03:22:29;;;;;;;4.90;3.80;;;;;;;;;;5070095;28;20276;-76
2021/08/03 03:24:57;;;;;;;5.00;3.90;;;;;;;;;;5054046;28;20180;-76
2021/08/03 03:27:24;;;;;;;5.10;4.07;;;;;;;;;;5053417;28;20276;-76
2021/08/03 03:29:50;;;;;;;5.13;4.03;;;;;;;;;;5054043;28;20283;-76
2021/08/03 03:32:17;;;;;;;5.33;4.43;;;;;;;;;;5052888;28;20203;-76
2021/08/03 03:34:44;;;;;;;4.37;3.97;;;;;;;;;;5052147;28;20177;-76
2021/08/03 03:37:11;;;;;;;6.97;4.17;;;;;;;;;;5071432;28;20184;-76
2021/08/03 03:39:38;;;;;;;4.43;4.00;;;;;;;;;;5052340;28;20847;-76
2021/08/03 03:42:06;;;;;;;4.63;4.13;;;;;;;;;;5070982;28;20197;-76
2021/08/03 03:44:32;;;;;;;7.50;4.63;;;;;;;;;;5052879;28;20267;-76
2021/08/03 03:47:00;;;;;;;4.10;3.70;;;;;;;;;;5053361;28;20189;-76
2021/08/03 03:49:31;;;;;;;4.97;4.50;;;;;;;;;;5052539;28;20211;-76
2021/08/03 03:51:58;;;;;;;5.83;3.97;;;;;;;;;;5071866;28;20803;-77
2021/08/03 03:54:26;;;;;;;5.70;4.43;;;;;;;;;;5071151;28;20188;-76
2021/08/03 03:56:58;;;;;;;5.20;4.67;;;;;;;;;;5071244;28;20207;-76
2021/08/03 03:59:24;;;;;;;5.17;4.37;;;;;;;;;;5053017;28;20657;-76
2021/08/03 04:01:51;;;;;;;6.77;4.50;;;;;;;;;;5071529;28;20176;-76
2021/08/03 04:04:18;;;;;;;6.33;4.70;;;;;;;;;;5052878;28;20176;-76
2021/08/03 04:06:44;;;;;;;5.40;4.30;;;;;;;;;;5053529;28;20259;-76
2021/08/03 04:09:17;;;;;;;4.67;4.00;;;;;;;;;;5071285;28;20524;-76
2021/08/03 04:11:44;;;;;;;5.23;4.73;;;;;;;;;;5070461;28;20183;-76
2021/08/03 04:14:12;;;;;;;6.67;4.60;;;;;;;;;;5071314;28;20199;-76
2021/08/03 04:16:38;;;;;;;5.40;4.87;;;;;;;;;;5053232;28;20549;-76
2021/08/03 04:19:04;;;;;;;5.43;4.93;;;;;;;;;;5071174;28;20302;-77
2021/08/03 04:21:30;;;;;;;4.93;4.53;;;;;;;;;;5052600;28;20224;-76
2021/08/03 04:23:56;;;;;;;5.43;4.90;;;;;;;;;;5053331;28;20180;-76
2021/08/03 04:26:22;;;;;;;5.53;4.57;;;;;;;;;;5070732;28;20192;-77
2021/08/03 04:28:48;;;;;;;4.93;4.43;;;;;;;;;;5048624;28;20602;-76
2021/08/03 04:31:14;;;;;;;7.57;5.07;;;;;;;;;;5070852;28;20172;-76
2021/08/03 04:33:40;;;;;;;5.90;4.97;;;;;;;;;;5053037;28;20238;-76
2021/08/03 04:36:06;;;;;;;8.50;6.23;;;;;;;;;;5052083;28;20532;-76
2021/08/03 04:38:32;;;;;;;6.27;5.27;;;;;;;;;;5052794;28;20180;-77
2021/08/03 04:40:58;;;;;;;5.97;5.17;;;;;;;;;;5070787;28;20197;-76
2021/08/03 04:43:25;;;;;;;6.47;5.07;;;;;;;;;;5052915;28;20186;-76
2021/08/03 04:45:51;;;;;;;6.07;5.47;;;;;;;;;;5052249;28;20196;-76
2021/08/03 04:48:17;;;;;;;8.07;6.43;;;;;;;;;;5070338;28;20544;-76
2021/08/03 04:50:43;;;;;;;5.53;5.03;;;;;;;;;;5070203;28;20180;-76
2021/08/03 04:53:09;;;;;;;5.60;5.00;;;;;;;;;;5052124;28;20639;-77
2021/08/03 04:55:35;;;;;;;6.50;5.88;;;;;;;;;;5047848;28;20404;-76
2021/08/03 04:58:01;;;;;;;5.73;5.23;;;;;;;;;;5069065;28;20228;-76
2021/08/03 05:00:29;;;;;;;6.27;5.67;;;;;;;;;;5069840;28;20196;-76
2021/08/03 05:02:55;;;;;;;5.90;5.07;;;;;;;;;;5058514;28;20538;-76
2021/08/03 05:05:21;;;;;;;5.43;4.93;;;;;;;;;;5069378;28;20180;-77
2021/08/03 05:07:53;;;;;;;5.17;4.67;;;;;;;;;;5069349;28;20709;-76
2021/08/03 05:10:19;;;;;;;7.57;5.40;;;;;;;;;;5051656;28;20176;-77
2021/08/03 05:12:45;;;;;;;7.73;4.77;;;;;;;;;;5051767;28;20220;-77
2021/08/03 05:15:11;;;;;;;6.40;4.70;;;;;;;;;;5070228;28;20654;-77
2021/08/03 05:17:37;;;;;;;6.50;4.90;;;;;;;;;;5052395;28;20174;-76
2021/08/03 05:20:04;;;;;;;7.93;5.13;;;;;;;;;;5051296;28;20274;-76
2021/08/03 05:22:30;;;;;;;5.37;4.50;;;;;;;;;;5069936;28;20203;-76
2021/08/03 05:24:58;;;;;;;8.93;5.27;;;;;;;;;;5070026;28;20268;-77
2021/08/03 05:27:24;;;;;;;5.30;4.87;;;;;;;;;;5051829;28;20181;-77
2021/08/03 05:29:50;;;;;;;6.57;4.97;;;;;;;;;;5051960;28;20183;-77
2021/08/03 05:32:17;;;;;;;6.88;4.85;;;;;;;;;;5069871;28;20485;-77
2021/08/03 05:34:43;;;;;;;6.70;4.83;;;;;;;;;;5051054;28;20234;-76
2021/08/03 05:37:09;;;;;;;6.23;5.00;;;;;;;;;;5058518;28;20267;-76
2021/08/03 05:39:35;;;;;;;6.47;5.87;;;;;;;;;;5050657;28;20271;-76
2021/08/03 05:42:02;;;;;;;6.30;4.93;;;;;;;;;;5070109;28;20225;-77
2021/08/03 05:44:28;;;;;;;9.95;8.80;;;;;;;;;;5085371;28;20422;-78
2021/08/03 05:46:54;;;;;;;9.40;6.93;;;;;;;;;;5087541;28;20176;-77
2021/08/03 05:49:20;;;;;;;6.00;5.43;;;;;;;;;;5071474;28;20212;-78
2021/08/03 05:51:46;;;;;;;8.87;6.50;;;;;;;;;;5054078;28;20183;-78
2021/08/03 05:54:12;;;;;;;7.47;5.50;;;;;;;;;;5071921;28;20195;-77
2021/08/03 05:56:39;;;;;;;5.80;4.60;;;;;;;;;;5055698;28;20188;-78
2021/08/03 05:59:05;;;;;;;5.67;4.83;;;;;;;;;;5091582;28;20506;-77
2021/08/03 06:01:31;;;;;;;5.40;4.90;;;;;;;;;;5091973;28;20287;-78
2021/08/03 06:03:57;;;;;;;8.13;5.10;;;;;;;;;;5091825;28;20209;-77
2021/08/03 06:06:25;;;;;;;5.87;4.50;;;;;;;;;;5107392;28;20661;-77
2021/08/03 06:08:51;;;;;;;5.63;4.45;;;;;;;;;;5087775;28;20895;-78
2021/08/03 06:11:21;;;;;;;5.00;4.50;;;;;;;;;;5085355;28;20180;-78
2021/08/03 06:13:48;;;;;;;5.57;4.00;;;;;;;;;;5072368;28;20566;-78
2021/08/03 06:16:19;;;;;;;4.20;3.90;;;;;;;;;;5072624;28;20180;-78
2021/08/03 06:18:46;;;;;;;4.93;4.43;;;;;;;;;;5106778;28;20191;-78
2021/08/03 06:21:13;;;;;;;4.47;4.00;;;;;;;;;;5088698;28;20235;-78
2021/08/03 06:23:39;;;;;;;4.23;3.83;;;;;;;;;;5090408;28;20172;-78
2021/08/03 06:26:06;;;;;;;4.70;4.10;;;;;;;;;;5090406;28;20175;-82
2021/08/03 06:28:32;;;;;;;4.07;3.50;;;;;;;;;;5089010;28;20176;-81
2021/08/03 06:30:59;;;;;;;5.63;3.33;;;;;;;;;;5092419;28;20183;-82
2021/08/03 06:33:25;;;;;;;4.20;3.73;;;;;;;;;;5071637;28;20520;-81
2021/08/03 06:35:52;;;;;;;3.80;3.40;;;;;;;;;;5088990;28;20194;-81
2021/08/03 06:38:18;;;;;;;4.77;3.63;;;;;;;;;;5104009;28;20183;-81
2021/08/03 06:40:55;;;;;;;5.23;3.73;;;;;;;;;;5104099;28;20214;-81
2021/08/03 06:43:23;;;;;;;4.27;3.53;;;;;;;;;;5089716;28;20718;-81
2021/08/03 06:45:53;;;;;;;4.00;3.60;;;;;;;;;;5071103;28;20171;-82
2021/08/03 06:48:46;;;;;;;3.90;3.10;;;;;;;;;;5071594;28;20290;-81
2021/08/03 06:51:16;;;;;;;4.03;3.60;;;;;;;;;;5054588;28;20173;-81
2021/08/03 06:53:45;;;;;;;3.50;3.20;;;;;;;;;;5075373;28;20506;-81
2021/08/03 06:56:11;;;;;;;4.03;2.77;;;;;;;;;;5093623;28;20184;-81
2021/08/03 06:58:38;;;;;;;7.53;3.90;;;;;;;;;;5107964;28;20219;-81
2021/08/03 07:01:05;;;;;;;3.30;2.77;;;;;;;;;;5074843;28;20969;-81
2021/08/03 07:03:41;;;;;;;4.97;2.77;;;;;;;;;;5110524;28;20188;-79
2021/08/03 07:06:07;;;;;;;3.63;3.10;;;;;;;;;;5091652;28;20163;-80
2021/08/03 07:08:34;;;;;;;3.77;2.63;;;;;;;;;;5108645;28;20621;-79
2021/08/03 07:11:00;;;;;;;3.10;2.80;;;;;;;;;;5074250;28;20296;-82
2021/08/03 07:13:27;;;;;;;5.03;2.87;;;;;;;;;;5073981;28;20187;-80
2021/08/03 07:15:53;;;;;;;3.40;3.10;;;;;;;;;;5108502;28;20625;-79
2021/08/03 07:18:20;;;;;;;3.10;2.90;;;;;;;;;;5074627;28;20555;-79
2021/08/03 07:20:48;;;;;;;4.30;3.10;;;;;;;;;;5070165;28;20196;-80
2021/08/03 07:23:17;;;;;;;2.90;2.70;;;;;;;;;;5109305;28;20190;-79
2021/08/03 07:25:43;;;;;;;4.27;3.40;;;;;;;;;;5085545;28;20184;-77
2021/08/03 07:28:09;;;;;;;3.73;3.07;;;;;;;;;;5091324;28;20656;-78
2021/08/03 07:30:35;;;;;;;3.10;2.70;;;;;;;;;;5092331;28;20180;-77
2021/08/03 07:33:01;;;;;;;3.97;3.30;;;;;;;;;;5091595;28;20325;-78
2021/08/03 07:35:27;;;;;;;3.20;2.90;;;;;;;;;;5071768;28;20180;-77
2021/08/03 07:37:53;;;;;;;3.47;2.80;;;;;;;;;;5072405;28;20540;-77
2021/08/03 07:40:19;;;;;;;2.87;2.67;;;;;;;;;;5091238;28;20191;-78
2021/08/03 07:42:45;;;;;;;3.03;2.73;;;;;;;;;;5112885;27;20560;-77
2021/08/03 07:45:11;;;;;;;4.77;2.63;;;;;;;;;;5072017;28;20172;-77
2021/08/03 07:47:38;;;;;;;3.10;2.80;;;;;;;;;;5089816;28;20179;-77
2021/08/03 07:50:04;;;;;;;3.73;2.90;;;;;;;;;;5071027;28;20180;-78
2021/08/03 07:52:30;;;;;;;3.67;3.00;;;;;;;;;;5090088;28;20333;-78
2021/08/03 07:54:56;;;;;;;3.53;3.23;;;;;;;;;;5090709;28;20187;-78
2021/08/03 07:57:23;;;;;;;3.20;2.63;;;;;;;;;;5082924;28;20227;-77
2021/08/03 07:59:49;;;;;;;3.60;3.30;;;;;;;;;;5049083;28;20245;-77
2021/08/03 08:02:15;;;;;;;4.93;3.20;;;;;;;;;;5049381;28;20185;-77
2021/08/03 08:04:41;;;;;;;3.80;2.90;;;;;;;;;;5066530;28;20177;-78
2021/08/03 08:07:07;;;;;;;3.30;3.00;;;;;;;;;;5044494;28;20300;-78
2021/08/03 08:09:33;;;;;;;2.90;2.67;;;;;;;;;;5069088;28;20244;-78
2021/08/03 08:11:59;;;;;;;3.70;2.90;;;;;;;;;;5050569;28;20188;-77
2021/08/03 08:14:25;;;;;;;3.33;2.60;;;;;;;;;;5064233;28;20247;-77
2021/08/03 08:16:51;;;;;;;3.43;3.13;;;;;;;;;;5055984;28;20496;-78
2021/08/03 08:19:17;;;;;;;3.10;2.80;;;;;;;;;;5050907;28;20180;-78
2021/08/03 08:21:43;;;;;;;2.77;2.50;;;;;;;;;;5064297;28;20232;-78
2021/08/03 08:24:09;;;;;;;3.37;2.70;;;;;;;;;;5070388;28;20184;-77
2021/08/03 08:26:35;;;;;;;3.00;2.80;;;;;;;;;;5052834;28;20192;-78
2021/08/03 08:29:01;;;;;;;4.13;2.70;;;;;;;;;;5069836;28;20176;-78
2021/08/03 08:31:27;;;;;;;3.07;2.80;;;;;;;;;;5052240;28;20508;-78
2021/08/03 08:33:53;;;;;;;3.00;2.77;;;;;;;;;;5071105;28;20259;-78
2021/08/03 08:36:19;;;;;;;2.90;2.70;;;;;;;;;;5061277;28;20272;-78
2021/08/03 08:38:45;;;;;;;4.00;2.97;;;;;;;;;;5047164;28;20261;-77
2021/08/03 08:41:15;;;;;;;3.97;2.90;;;;;;;;;;5059904;28;20438;-77
2021/08/03 08:43:41;;;;;;;3.30;2.70;;;;;;;;;;5074592;28;20177;-78
2021/08/03 08:46:08;;;;;;;4.00;2.97;;;;;;;;;;5070821;28;20536;-78
2021/08/03 08:48:34;;;;;;;5.40;2.87;;;;;;;;;;5071249;28;20176;-78
2021/08/03 08:51:00;;;;;;;2.87;2.60;;;;;;;;;;5051136;28;20241;-78
2021/08/03 08:53:27;;;;;;;3.33;2.83;;;;;;;;;;5070629;28;20273;-78
2021/08/03 08:55:53;;;;;;;3.00;2.70;;;;;;;;;;5051704;28;20711;-78
2021/08/03 08:58:19;;;;;;;3.43;2.67;;;;;;;;;;5081492;28;20223;-78
2021/08/03 09:00:46;;;;;;;2.83;2.43;;;;;;;;;;5069241;28;20215;-77
2021/08/03 09:03:12;;;;;;;2.50;2.30;;;;;;;;;;5089839;28;20179;-78
2021/08/03 09:05:41;;;;;;;3.30;2.97;;;;;;;;;;5088891;28;20268;-78
2021/08/03 09:08:08;;;;;;;2.97;2.67;;;;;;;;;;5089550;28;20251;-78
2021/08/03 09:10:45;;;;;;;2.70;2.10;;;;;;;;;;5085920;28;20181;-78
2021/08/03 09:13:13;;;;;;;3.27;2.90;;;;;;;;;;5087595;28;20264;-78
2021/08/03 09:15:40;;;;;;;3.27;2.97;;;;;;;;;;5087976;28;20564;-78
2021/08/03 09:18:12;;;;;;;3.80;3.10;;;;;;;;;;5069011;28;20205;-77
2021/08/03 09:20:38;;;;;;;3.60;2.93;;;;;;;;;;5088835;28;20195;-78
2021/08/03 09:23:04;;;;;;;3.83;3.40;;;;;;;;;;5071962;28;20266;-77
2021/08/03 09:25:30;;;;;;;3.50;2.50;;;;;;;;;;5090260;28;20180;-78
2021/08/03 09:28:04;;;;;;;2.67;2.47;;;;;;;;;;5090556;28;20622;-78
2021/08/03 09:30:31;;;;;;;3.30;2.40;;;;;;;;;;5090292;28;20630;-78
2021/08/03 09:32:57;;;;;;;4.00;2.40;;;;;;;;;;5071370;28;20190;-77
2021/08/03 09:35:24;;;;;;;2.40;2.20;;;;;;;;;;5088744;28;20183;-78
2021/08/03 09:37:51;;;;;;;3.17;2.87;;;;;;;;;;5089353;28;20635;-78
2021/08/03 09:40:22;;;;;;;2.87;2.67;;;;;;;;;;5071247;28;20200;-78
2021/08/03 09:42:58;;;;;;;2.50;2.27;;;;;;;;;;5090072;28;20612;-78
2021/08/03 09:45:25;;;;;;;3.00;2.70;;;;;;;;;;5072249;28;20168;-78
2021/08/03 09:47:51;;;;;;;3.10;2.83;;;;;;;;;;5090148;28;20285;-77
2021/08/03 09:50:19;;;;;;;3.17;2.50;;;;;;;;;;5088890;28;20267;-78
2021/08/03 09:52:47;;;;;;;3.13;2.53;;;;;;;;;;5090177;28;20176;-78
2021/08/03 09:55:13;;;;;;;2.60;2.40;;;;;;;;;;5074702;28;20461;-78
2021/08/03 09:57:40;;;;;;;2.73;2.53;;;;;;;;;;5104301;28;20228;-78
2021/08/03 10:00:34;;;;;;;2.33;2.13;;;;;;;;;;5070728;28;20226;-78
2021/08/03 10:03:00;;;;;;;3.00;2.47;;;;;;;;;;5070336;28;20183;-78
2021/08/03 10:05:26;;;;;;;3.17;2.43;;;;;;;;;;5101474;28;20179;-79
2021/08/03 10:07:53;;;;;;;2.07;1.97;;;;;;;;;;5088230;28;20714;-80
2021/08/03 10:10:19;;;;;;;3.00;2.80;;;;;;;;;;5072587;28;20655;-80
2021/08/03 10:12:46;;;;;;;3.03;2.73;;;;;;;;;;5072424;28;20271;-82
2021/08/03 10:15:12;;;;;;;2.60;2.40;;;;;;;;;;5079396;28;20181;-82
2021/08/03 10:17:39;;;;;;;2.80;2.50;;;;;;;;;;5092115;28;20246;-82
2021/08/03 10:20:05;;;;;;;2.93;2.63;;;;;;;;;;5091247;28;20256;-82
2021/08/03 10:22:33;;;;;;;3.20;2.90;;;;;;;;;;5080209;28;20199;-78
2021/08/03 10:25:10;;;;;;;3.97;3.40;;;;;;;;;;5097335;28;20184;-78
2021/08/03 10:27:40;;;;;;;4.90;3.17;;;;;;;;;;5117516;28;20172;-78
2021/08/03 10:30:06;;;;;;;4.40;3.03;;;;;;;;;;5102509;28;20194;-77
2021/08/03 10:32:49;;;;;;;4.00;3.17;;;;;;;;;;5076412;28;20205;-77
2021/08/03 10:35:18;;;;;;;3.30;3.00;;;;;;;;;;5090857;28;20266;-78
2021/08/03 10:37:56;;;;;;;3.73;3.37;;;;;;;;;;5074365;28;20182;-77
2021/08/03 10:40:42;;;;;;;3.17;2.87;;;;;;;;;;5078005;28;20225;-77
2021/08/03 10:43:14;;;;;;;5.20;2.90;;;;;;;;;;5074836;28;20207;-78
2021/08/03 10:45:41;;;;;;;3.47;2.80;;;;;;;;;;5076944;28;20275;-78
2021/08/03 10:48:07;;;;;;;7.70;3.70;;;;;;;;;;5113375;27;20175;-78
2021/08/03 10:50:33;;;;;;;4.97;3.10;;;;;;;;;;5078357;28;20237;-78
2021/08/03 10:53:03;;;;;;;3.03;2.73;;;;;;;;;;5097031;28;20180;-78
2021/08/03 10:55:30;;;;;;;3.33;3.00;;;;;;;;;;5079061;28;20222;-78
2021/08/03 10:58:13;;;;;;;4.30;3.00;;;;;;;;;;5105726;28;20221;-78
2021/08/03 11:00:46;;;;;;;10.03;2.60;;;;;;;;;;5075176;28;20204;-78
2021/08/03 11:03:33;;;;;;;4.03;3.33;;;;;;;;;;5073209;28;20168;-78
2021/08/03 11:06:11;;;;;;;2.83;2.60;;;;;;;;;;5072164;28;20212;-77
2021/08/03 11:08:38;;;;;;;3.77;2.90;;;;;;;;;;5069325;28;20176;-78
2021/08/03 11:11:13;;;;;;;2.90;2.57;;;;;;;;;;5074585;28;20647;-77
2021/08/03 11:13:41;;;;;;;3.37;2.73;;;;;;;;;;5074449;28;20249;-77
2021/08/03 11:16:12;;;;;;;4.70;3.20;;;;;;;;;;5068135;28;20199;-77
2021/08/03 11:18:42;;;;;;;5.20;2.97;;;;;;;;;;5072473;28;20188;-77
2021/08/03 11:21:08;;;;;;;4.07;3.27;;;;;;;;;;5071378;28;20245;-77
2021/08/03 11:23:53;;;;;;;3.03;2.40;;;;;;;;;;5072890;28;20180;-77
2021/08/03 11:26:20;;;;;;;3.87;2.87;;;;;;;;;;5054467;28;20568;-78
2021/08/03 11:29:21;;;;;;;2.93;2.60;;;;;;;;;;5072487;28;20208;-77
2021/08/03 11:31:56;;;;;;;3.63;2.90;;;;;;;;;;5012804;28;20272;-78
2021/08/03 11:34:27;;;;;;;3.10;2.30;;;;;;;;;;5078454;28;20196;-78
2021/08/03 11:36:54;;;;;;;3.10;2.77;;;;;;;;;;5071401;28;20267;-78
2021/08/03 11:39:24;;;;;;;3.90;2.47;;;;;;;;;;5072406;28;20187;-78
2021/08/03 11:41:50;;;;;;;2.93;2.63;;;;;;;;;;5070998;28;20662;-78
2021/08/03 11:44:17;;;;;;;4.40;2.77;;;;;;;;;;5063251;28;20199;-78
2021/08/03 11:46:44;;;;;;;3.87;3.03;;;;;;;;;;5070335;28;20202;-78
2021/08/03 11:49:10;;;;;;;3.60;3.03;;;;;;;;;;5069981;28;20662;-77
2021/08/03 11:51:43;;;;;;;5.77;3.87;;;;;;;;;;5070623;28;20173;-78
2021/08/03 11:54:10;;;;;;;6.63;3.87;;;;;;;;;;5070302;28;20548;-78
2021/08/03 11:56:36;;;;;;;3.37;3.00;;;;;;;;;;5071574;28;20536;-77
2021/08/03 11:59:02;;;;;;;3.90;3.23;;;;;;;;;;5090840;28;20192;-77
2021/08/03 12:01:47;;;;;;;6.07;3.10;;;;;;;;;;5091341;28;20670;-77
2021/08/03 12:04:22;;;;;;;3.83;3.10;;;;;;;;;;5090112;28;20743;-77
2021/08/03 12:06:49;;;;;;;4.73;2.90;;;;;;;;;;5072449;28;20203;-77
2021/08/03 12:09:17;;;;;;;5.20;3.07;;;;;;;;;;5091431;28;20184;-77
2021/08/03 12:11:45;;;;;;;3.47;2.77;;;;;;;;;;5091757;28;20175;-77
2021/08/03 12:14:18;;;;;;;3.30;2.97;;;;;;;;;;5070182;28;20237;-78
2021/08/03 12:16:44;;;;;;;4.50;3.20;;;;;;;;;;5070493;28;20196;-77
2021/08/03 12:19:29;;;;;;;5.33;2.90;;;;;;;;;;5068876;28;20188;-77
2021/08/03 12:21:55;;;;;;;3.83;2.50;;;;;;;;;;5071712;28;20519;-77
2021/08/03 12:24:21;;;;;;;5.00;2.83;;;;;;;;;;5091127;28;20256;-77
2021/08/03 12:26:47;;;;;;;6.47;3.37;;;;;;;;;;5073559;28;20172;-78
2021/08/03 12:29:14;;;;;;;6.23;2.93;;;;;;;;;;5072559;28;20176;-77
2021/08/03 12:31:43;;;;;;;2.87;2.60;;;;;;;;;;5089629;28;20175;-77
2021/08/03 12:34:13;;;;;;;4.27;3.10;;;;;;;;;;5070428;28;20275;-77
2021/08/03 12:36:45;;;;;;;5.60;4.10;;;;;;;;;;5084980;28;20176;-77
2021/08/03 12:39:18;;;;;;;3.80;3.23;;;;;;;;;;5067582;28;20188;-77
2021/08/03 12:41:45;;;;;;;3.97;3.53;;;;;;;;;;5086901;28;20205;-77
2021/08/03 12:44:27;;;;;;;4.53;3.73;;;;;;;;;;5090295;28;20171;-77
2021/08/03 12:46:53;;;;;;;3.33;3.03;;;;;;;;;;5072673;28;20190;-77
2021/08/03 12:49:30;;;;;;;5.30;2.93;;;;;;;;;;5069077;28;20281;-77
2021/08/03 12:52:05;;;;;;;5.37;3.33;;;;;;;;;;5089030;28;20263;-77
2021/08/03 12:54:32;;;;;;;3.73;3.33;;;;;;;;;;5088206;28;20652;-77
2021/08/03 12:56:59;;;;;;;4.17;3.17;;;;;;;;;;5085801;28;20353;-76
2021/08/03 12:59:34;;;;;;;3.47;3.17;;;;;;;;;;5070069;28;20184;-76
2021/08/03 13:02:00;;;;;;;3.87;2.87;;;;;;;;;;5052140;28;20343;-77
2021/08/03 13:04:26;;;;;;;4.33;3.60;;;;;;;;;;5049207;28;20659;-77
2021/08/03 13:06:53;;;;;;;3.57;2.93;;;;;;;;;;5052361;28;20198;-77
2021/08/03 13:09:19;;;;;;;4.37;3.33;;;;;;;;;;5048541;28;20200;-77
2021/08/03 13:11:45;;;;;;;3.97;3.10;;;;;;;;;;5048721;28;20188;-77
2021/08/03 13:14:11;;;;;;;4.37;3.47;;;;;;;;;;5067807;28;20180;-77
2021/08/03 13:16:37;;;;;;;4.53;3.30;;;;;;;;;;5068262;28;20176;-78
2021/08/03 13:19:03;;;;;;;3.27;3.07;;;;;;;;;;5034959;28;20188;-78
2021/08/03 13:21:29;;;;;;;3.13;2.93;;;;;;;;;;5050571;28;20197;-78
2021/08/03 13:23:56;;;;;;;4.13;3.73;;;;;;;;;;5050432;28;20234;-77
2021/08/03 13:26:22;;;;;;;3.43;3.13;;;;;;;;;;5050600;28;20556;-77
2021/08/03 13:28:49;;;;;;;3.77;3.47;;;;;;;;;;5049912;28;20183;-77
2021/08/03 13:31:15;;;;;;;5.10;3.27;;;;;;;;;;5087987;28;20271;-77
2021/08/03 13:33:41;;;;;;;4.20;3.20;;;;;;;;;;5050849;28;20208;-77
2021/08/03 13:36:07;;;;;;;4.17;3.40;;;;;;;;;;5067270;28;20653;-77
2021/08/03 13:38:34;;;;;;;4.17;3.57;;;;;;;;;;5069741;28;20635;-78
2021/08/03 13:41:00;;;;;;;5.73;3.53;;;;;;;;;;5051564;28;20410;-78
2021/08/03 13:43:26;;;;;;;5.17;3.57;;;;;;;;;;5052088;28;20176;-78
2021/08/03 13:45:52;;;;;;;5.80;3.50;;;;;;;;;;5068683;28;20496;-77
2021/08/03 13:48:18;;;;;;;4.07;3.20;;;;;;;;;;5067212;28;20558;-77
2021/08/03 13:50:44;;;;;;;3.53;3.20;;;;;;;;;;5066960;28;20581;-77
2021/08/03 13:53:10;;;;;;;4.80;3.50;;;;;;;;;;5050127;28;20188;-76
2021/08/03 13:55:36;;;;;;;4.20;3.20;;;;;;;;;;5068489;28;20183;-77
2021/08/03 13:58:02;;;;;;;3.17;2.70;;;;;;;;;;5064348;28;20698;-77
2021/08/03 14:00:28;;;;;;;4.07;3.30;;;;;;;;;;5048209;28;20230;-77
2021/08/03 14:02:54;;;;;;;4.70;4.13;;;;;;;;;;5066347;28;20176;-77
2021/08/03 14:05:21;;;;;;;4.33;3.30;;;;;;;;;;5067372;28;20227;-77
2021/08/03 14:07:47;;;;;;;4.10;3.10;;;;;;;;;;5067559;28;20228;-77
2021/08/03 14:10:13;;;;;;;6.33;3.27;;;;;;;;;;5049332;28;20210;-77
2021/08/03 14:12:39;;;;;;;4.00;3.20;;;;;;;;;;5067088;28;20292;-77
2021/08/03 14:15:06;;;;;;;3.43;2.73;;;;;;;;;;5068189;28;20535;-77
2021/08/03 14:17:32;;;;;;;4.70;3.43;;;;;;;;;;5068380;28;20654;-76
2021/08/03 14:19:58;;;;;;;3.87;3.10;;;;;;;;;;5049549;28;20271;-77
2021/08/03 14:22:24;;;;;;;3.60;3.27;;;;;;;;;;5049590;28;20231;-77
2021/08/03 14:24:50;;;;;;;3.10;2.70;;;;;;;;;;5050112;28;20199;-77
2021/08/03 14:27:16;;;;;;;3.57;3.10;;;;;;;;;;5050476;28;20514;-77
2021/08/03 14:29:42;;;;;;;3.33;3.03;;;;;;;;;;5068602;28;20210;-78
2021/08/03 14:32:08;;;;;;;3.90;2.90;;;;;;;;;;5050748;28;20184;-78
2021/08/03 14:34:34;;;;;;;2.97;2.63;;;;;;;;;;5048936;28;20217;-78
2021/08/03 14:37:00;;;;;;;4.60;2.90;;;;;;;;;;5067851;28;20671;-77
2021/08/03 14:39:26;;;;;;;3.57;3.17;;;;;;;;;;5068399;28;20184;-77
2021/08/03 14:41:52;;;;;;;4.00;3.60;;;;;;;;;;5068427;28;20249;-77
2021/08/03 14:44:18;;;;;;;4.77;2.73;;;;;;;;;;5068190;28;20188;-78
2021/08/03 14:46:44;;;;;;;3.03;2.73;;;;;;;;;;5068540;28;20180;-78
2021/08/03 14:49:12;;;;;;;3.73;3.23;;;;;;;;;;5049113;28;20547;-77